sensor_id;sensor_type;location;lat;lon;timestamp;P1;durP1;ratioP1;P2;durP2;ratioP2
3401;SDS011;1714;49.756;8.610;2022-08-04T00:00:02;5.05;;;2.30;;
3401;SDS011;1714;49.756;8.610;2022-08-04T00:10:07;5.40;;;2.75;;
3401;SDS011;1714;49.756;8.610;2022-08-04T00:20:11;6.32;;;2.85;;
3401;SDS011;1714;49.756;8.610;2022-08-04T00:30:22;9.55;;;2.97;;
3401;SDS011;1714;49.756;8.610;2022-08-04T00:40:46;8.75;;;3.17;;
3401;SDS011;1714;49.756;8.610;2022-08-04T01:12:56;8.20;;;2.60;;
3401;SDS011;1714;49.756;8.610;2022-08-04T01:23:29;5.72;;;2.55;;
3401;SDS011;1714;49.756;8.610;2022-08-04T01:33:46;4.18;;;2.50;;
3401;SDS011;1714;49.756;8.610;2022-08-04T01:44:03;3.28;;;2.70;;
3401;SDS011;1714;49.756;8.610;2022-08-04T01:54:05;7.40;;;3.03;;
3401;SDS011;1714;49.756;8.610;2022-08-04T02:04:12;8.57;;;3.20;;
3401;SDS011;1714;49.756;8.610;2022-08-04T02:14:27;6.15;;;3.20;;
3401;SDS011;1714;49.756;8.610;2022-08-04T02:24:57;3.75;;;3.15;;
3401;SDS011;1714;49.756;8.610;2022-08-04T02:35:13;21.33;;;4.93;;
3401;SDS011;1714;49.756;8.610;2022-08-04T02:45:27;4.40;;;3.25;;
3401;SDS011;1714;49.756;8.610;2022-08-04T02:55:31;4.10;;;3.05;;
3401;SDS011;1714;49.756;8.610;2022-08-04T03:16:57;6.25;;;3.30;;
3401;SDS011;1714;49.756;8.610;2022-08-04T03:27:48;6.43;;;3.55;;
3401;SDS011;1714;49.756;8.610;2022-08-04T03:48:08;4.28;;;3.50;;
3401;SDS011;1714;49.756;8.610;2022-08-04T04:09:02;3.95;;;3.60;;
3401;SDS011;1714;49.756;8.610;2022-08-04T04:30:07;4.25;;;3.72;;
3401;SDS011;1714;49.756;8.610;2022-08-04T05:33:30;5.65;;;4.03;;
3401;SDS011;1714;49.756;8.610;2022-08-04T05:43:41;7.30;;;4.43;;
3401;SDS011;1714;49.756;8.610;2022-08-04T05:53:44;17.33;;;5.68;;
3401;SDS011;1714;49.756;8.610;2022-08-04T06:03:47;7.50;;;4.10;;
3401;SDS011;1714;49.756;8.610;2022-08-04T06:13:56;7.50;;;4.45;;
3401;SDS011;1714;49.756;8.610;2022-08-04T06:24:01;11.77;;;4.40;;
3401;SDS011;1714;49.756;8.610;2022-08-04T06:34:05;6.05;;;4.07;;
3401;SDS011;1714;49.756;8.610;2022-08-04T06:44:11;11.95;;;4.20;;
3401;SDS011;1714;49.756;8.610;2022-08-04T06:54:14;10.50;;;4.63;;
3401;SDS011;1714;49.756;8.610;2022-08-04T07:04:16;4.93;;;2.92;;
3401;SDS011;1714;49.756;8.610;2022-08-04T07:14:19;5.40;;;2.72;;
3401;SDS011;1714;49.756;8.610;2022-08-04T07:24:28;10.57;;;3.15;;
3401;SDS011;1714;49.756;8.610;2022-08-04T07:34:32;7.18;;;3.97;;
3401;SDS011;1714;49.756;8.610;2022-08-04T07:44:39;5.25;;;3.20;;
3401;SDS011;1714;49.756;8.610;2022-08-04T07:54:45;6.32;;;3.08;;
3401;SDS011;1714;49.756;8.610;2022-08-04T08:04:50;5.85;;;2.65;;
3401;SDS011;1714;49.756;8.610;2022-08-04T08:14:53;7.30;;;2.70;;
3401;SDS011;1714;49.756;8.610;2022-08-04T08:24:55;3.75;;;2.33;;
3401;SDS011;1714;49.756;8.610;2022-08-04T08:34:57;7.93;;;2.53;;
3401;SDS011;1714;49.756;8.610;2022-08-04T08:45:22;4.60;;;2.63;;
3401;SDS011;1714;49.756;8.610;2022-08-04T09:17:02;8.15;;;2.55;;
3401;SDS011;1714;49.756;8.610;2022-08-04T09:27:12;8.02;;;2.47;;
3401;SDS011;1714;49.756;8.610;2022-08-04T09:58:08;3.67;;;2.22;;
3401;SDS011;1714;49.756;8.610;2022-08-04T10:29:21;5.97;;;1.83;;
3401;SDS011;1714;49.756;8.610;2022-08-04T10:39:36;4.85;;;1.98;;
3401;SDS011;1714;49.756;8.610;2022-08-04T10:50:25;7.13;;;2.37;;
3401;SDS011;1714;49.756;8.610;2022-08-04T11:00:30;3.67;;;1.90;;
3401;SDS011;1714;49.756;8.610;2022-08-04T11:10:47;3.55;;;1.50;;
3401;SDS011;1714;49.756;8.610;2022-08-04T11:31:14;1.20;;;1.10;;
3401;SDS011;1714;49.756;8.610;2022-08-04T11:41:36;3.10;;;1.52;;
3401;SDS011;1714;49.756;8.610;2022-08-04T11:51:40;1.50;;;1.10;;
3401;SDS011;1714;49.756;8.610;2022-08-04T12:11:55;3.70;;;1.10;;
3401;SDS011;1714;49.756;8.610;2022-08-04T12:22:15;3.30;;;0.98;;
3401;SDS011;1714;49.756;8.610;2022-08-04T12:32:40;3.47;;;0.88;;
3401;SDS011;1714;49.756;8.610;2022-08-04T12:53:12;5.15;;;1.10;;
3401;SDS011;1714;49.756;8.610;2022-08-04T13:04:17;1.92;;;1.10;;
3401;SDS011;1714;49.756;8.610;2022-08-04T13:13:55;3.55;;;0.85;;
3401;SDS011;1714;49.756;8.610;2022-08-04T13:24:19;4.47;;;1.50;;
3401;SDS011;1714;49.756;8.610;2022-08-04T13:34:32;2.10;;;0.77;;
3401;SDS011;1714;49.756;8.610;2022-08-04T13:44:35;2.87;;;1.23;;
3401;SDS011;1714;49.756;8.610;2022-08-04T14:04:42;2.30;;;1.00;;
3401;SDS011;1714;49.756;8.610;2022-08-04T14:14:56;5.60;;;1.10;;
3401;SDS011;1714;49.756;8.610;2022-08-04T14:35:13;3.35;;;1.25;;
3401;SDS011;1714;49.756;8.610;2022-08-04T14:45:16;4.63;;;1.40;;
3401;SDS011;1714;49.756;8.610;2022-08-04T14:55:23;5.15;;;1.50;;
3401;SDS011;1714;49.756;8.610;2022-08-04T15:05:25;5.85;;;1.40;;
3401;SDS011;1714;49.756;8.610;2022-08-04T15:15:51;3.55;;;1.08;;
3401;SDS011;1714;49.756;8.610;2022-08-04T15:26:12;4.68;;;1.05;;
3401;SDS011;1714;49.756;8.610;2022-08-04T15:36:37;1.10;;;0.95;;
3401;SDS011;1714;49.756;8.610;2022-08-04T15:47:11;5.55;;;0.95;;
3401;SDS011;1714;49.756;8.610;2022-08-04T15:57:14;1.67;;;1.45;;
3401;SDS011;1714;49.756;8.610;2022-08-04T16:07:17;7.00;;;1.45;;
3401;SDS011;1714;49.756;8.610;2022-08-04T16:17:18;3.15;;;1.30;;
3401;SDS011;1714;49.756;8.610;2022-08-04T16:27:34;2.03;;;1.07;;
3401;SDS011;1714;49.756;8.610;2022-08-04T16:37:42;3.03;;;1.00;;
3401;SDS011;1714;49.756;8.610;2022-08-04T16:57:49;5.70;;;1.30;;
3401;SDS011;1714;49.756;8.610;2022-08-04T17:07:54;9.93;;;1.80;;
3401;SDS011;1714;49.756;8.610;2022-08-04T17:18:19;5.55;;;1.35;;
3401;SDS011;1714;49.756;8.610;2022-08-04T17:28:29;5.72;;;1.38;;
3401;SDS011;1714;49.756;8.610;2022-08-04T17:38:47;4.53;;;1.42;;
3401;SDS011;1714;49.756;8.610;2022-08-04T17:48:56;2.97;;;1.63;;
3401;SDS011;1714;49.756;8.610;2022-08-04T17:59:06;4.95;;;1.80;;
3401;SDS011;1714;49.756;8.610;2022-08-04T18:30:27;4.70;;;1.40;;
3401;SDS011;1714;49.756;8.610;2022-08-04T18:40:50;12.98;;;3.22;;
3401;SDS011;1714;49.756;8.610;2022-08-04T18:50:56;6.40;;;2.42;;
3401;SDS011;1714;49.756;8.610;2022-08-04T19:01:08;7.25;;;1.67;;
3401;SDS011;1714;49.756;8.610;2022-08-04T19:11:13;4.15;;;1.55;;
3401;SDS011;1714;49.756;8.610;2022-08-04T19:21:38;1.70;;;1.60;;
3401;SDS011;1714;49.756;8.610;2022-08-04T19:32:00;6.45;;;1.63;;
3401;SDS011;1714;49.756;8.610;2022-08-04T19:42:15;3.92;;;1.90;;
3401;SDS011;1714;49.756;8.610;2022-08-04T19:52:18;3.50;;;1.73;;
3401;SDS011;1714;49.756;8.610;2022-08-04T20:02:33;3.45;;;1.95;;
3401;SDS011;1714;49.756;8.610;2022-08-04T20:12:38;5.63;;;2.43;;
3401;SDS011;1714;49.756;8.610;2022-08-04T20:22:40;5.18;;;2.13;;
3401;SDS011;1714;49.756;8.610;2022-08-04T20:32:50;6.32;;;2.00;;
3401;SDS011;1714;49.756;8.610;2022-08-04T20:42:53;3.90;;;1.77;;
3401;SDS011;1714;49.756;8.610;2022-08-04T20:52:55;6.28;;;2.28;;
3401;SDS011;1714;49.756;8.610;2022-08-04T21:02:58;3.75;;;2.15;;
3401;SDS011;1714;49.756;8.610;2022-08-04T21:13:00;3.58;;;2.13;;
3401;SDS011;1714;49.756;8.610;2022-08-04T21:23:05;2.42;;;1.85;;
3401;SDS011;1714;49.756;8.610;2022-08-04T21:33:08;2.75;;;1.77;;
3401;SDS011;1714;49.756;8.610;2022-08-04T21:43:11;2.53;;;2.33;;
3401;SDS011;1714;49.756;8.610;2022-08-04T21:53:13;6.78;;;2.85;;
3401;SDS011;1714;49.756;8.610;2022-08-04T22:03:16;8.07;;;2.60;;
3401;SDS011;1714;49.756;8.610;2022-08-04T22:13:41;10.32;;;2.97;;
3401;SDS011;1714;49.756;8.610;2022-08-04T22:24:04;7.80;;;3.22;;
3401;SDS011;1714;49.756;8.610;2022-08-04T22:34:27;2.30;;;2.10;;
3401;SDS011;1714;49.756;8.610;2022-08-04T22:44:30;3.90;;;2.13;;
3401;SDS011;1714;49.756;8.610;2022-08-04T22:54:35;3.38;;;1.98;;
3401;SDS011;1714;49.756;8.610;2022-08-04T23:04:37;2.58;;;1.70;;
3401;SDS011;1714;49.756;8.610;2022-08-04T23:14:44;2.80;;;1.58;;
3401;SDS011;1714;49.756;8.610;2022-08-04T23:24:47;9.25;;;1.90;;
3401;SDS011;1714;49.756;8.610;2022-08-04T23:34:49;9.65;;;2.25;;
3401;SDS011;1714;49.756;8.610;2022-08-04T23:44:52;4.85;;;2.28;;
3401;SDS011;1714;49.756;8.610;2022-08-04T23:54:54;3.80;;;1.75;;
